sensor_id;sensor_type;location;lat;lon;timestamp;pressure;altitude;pressure_sealevel;temperature;humidity
70488;BME280;57976;48.174;16.370;2022-12-07T00:01:54;99115.79;;;6.36;78.06
70488;BME280;57976;48.174;16.370;2022-12-07T00:04:01;99118.90;;;6.34;77.71
70488;BME280;57976;48.174;16.370;2022-12-07T00:06:07;99112.31;;;6.34;77.77
70488;BME280;57976;48.174;16.370;2022-12-07T00:08:12;99114.13;;;6.33;77.57
70488;BME280;57976;48.174;16.370;2022-12-07T00:10:17;99115.40;;;6.31;77.56
70488;BME280;57976;48.174;16.370;2022-12-07T00:12:22;99117.38;;;6.31;77.31
70488;BME280;57976;48.174;16.370;2022-12-07T00:14:26;99111.96;;;6.31;77.55
70488;BME280;57976;48.174;16.370;2022-12-07T00:16:32;99114.64;;;6.30;77.46
70488;BME280;57976;48.174;16.370;2022-12-07T00:18:37;99105.14;;;6.29;77.35
70488;BME280;57976;48.174;16.370;2022-12-07T00:20:42;99105.23;;;6.28;77.68
70488;BME280;57976;48.174;16.370;2022-12-07T00:22:47;99106.91;;;6.27;77.83
70488;BME280;57976;48.174;16.370;2022-12-07T00:24:52;99103.60;;;6.27;77.49
70488;BME280;57976;48.174;16.370;2022-12-07T00:26:56;99104.56;;;6.28;77.61
70488;BME280;57976;48.174;16.370;2022-12-07T00:29:03;99105.70;;;6.28;77.97
70488;BME280;57976;48.174;16.370;2022-12-07T00:31:11;99107.36;;;6.28;78.27
70488;BME280;57976;48.174;16.370;2022-12-07T00:33:17;99100.08;;;6.28;78.08
70488;BME280;57976;48.174;16.370;2022-12-07T00:35:22;99098.66;;;6.28;78.14
70488;BME280;57976;48.174;16.370;2022-12-07T00:37:26;99097.66;;;6.29;78.19
70488;BME280;57976;48.174;16.370;2022-12-07T00:39:31;99103.14;;;6.29;78.62
70488;BME280;57976;48.174;16.370;2022-12-07T00:41:36;99102.52;;;6.30;78.75
70488;BME280;57976;48.174;16.370;2022-12-07T00:43:41;99099.98;;;6.27;78.49
70488;BME280;57976;48.174;16.370;2022-12-07T00:45:46;99100.05;;;6.27;78.68
70488;BME280;57976;48.174;16.370;2022-12-07T00:47:51;99101.50;;;6.25;78.85
70488;BME280;57976;48.174;16.370;2022-12-07T00:49:55;99101.56;;;6.26;79.06
70488;BME280;57976;48.174;16.370;2022-12-07T00:52:00;99104.26;;;6.27;78.83
70488;BME280;57976;48.174;16.370;2022-12-07T00:54:05;99098.79;;;6.26;79.14
70488;BME280;57976;48.174;16.370;2022-12-07T00:56:11;99099.36;;;6.24;79.02
70488;BME280;57976;48.174;16.370;2022-12-07T00:58:16;99095.15;;;6.25;79.31
70488;BME280;57976;48.174;16.370;2022-12-07T01:00:21;99098.39;;;6.26;79.55
70488;BME280;57976;48.174;16.370;2022-12-07T01:02:26;99102.57;;;6.27;79.74
70488;BME280;57976;48.174;16.370;2022-12-07T01:04:32;99099.27;;;6.26;79.58
70488;BME280;57976;48.174;16.370;2022-12-07T01:06:37;99100.02;;;6.24;79.84
70488;BME280;57976;48.174;16.370;2022-12-07T01:08:42;99099.59;;;6.23;80.01
70488;BME280;57976;48.174;16.370;2022-12-07T01:10:47;99100.96;;;6.22;80.18
70488;BME280;57976;48.174;16.370;2022-12-07T01:12:52;99102.06;;;6.22;80.12
70488;BME280;57976;48.174;16.370;2022-12-07T01:14:57;99102.98;;;6.21;80.15
70488;BME280;57976;48.174;16.370;2022-12-07T01:17:01;99105.64;;;6.20;80.33
70488;BME280;57976;48.174;16.370;2022-12-07T01:19:06;99105.73;;;6.18;80.58
70488;BME280;57976;48.174;16.370;2022-12-07T01:21:14;99107.88;;;6.16;80.39
70488;BME280;57976;48.174;16.370;2022-12-07T01:23:18;99105.02;;;6.12;80.64
70488;BME280;57976;48.174;16.370;2022-12-07T01:25:23;99106.27;;;6.09;80.74
70488;BME280;57976;48.174;16.370;2022-12-07T01:27:28;99102.70;;;6.06;80.99
70488;BME280;57976;48.174;16.370;2022-12-07T01:29:33;99100.48;;;6.04;80.79
70488;BME280;57976;48.174;16.370;2022-12-07T01:31:37;99095.75;;;6.04;81.18
70488;BME280;57976;48.174;16.370;2022-12-07T01:33:44;99096.20;;;6.03;81.47
70488;BME280;57976;48.174;16.370;2022-12-07T01:35:49;99095.77;;;6.04;81.25
70488;BME280;57976;48.174;16.370;2022-12-07T01:37:53;99096.26;;;6.04;81.51
70488;BME280;57976;48.174;16.370;2022-12-07T01:39:58;99100.91;;;6.05;81.43
70488;BME280;57976;48.174;16.370;2022-12-07T01:42:04;99100.71;;;6.05;81.60
70488;BME280;57976;48.174;16.370;2022-12-07T01:44:20;99101.01;;;6.06;81.77
70488;BME280;57976;48.174;16.370;2022-12-07T01:46:26;99099.62;;;6.05;81.79
70488;BME280;57976;48.174;16.370;2022-12-07T01:48:34;99101.38;;;6.05;81.81
70488;BME280;57976;48.174;16.370;2022-12-07T01:50:43;99102.09;;;6.07;82.28
70488;BME280;57976;48.174;16.370;2022-12-07T01:52:50;99096.29;;;6.08;82.04
70488;BME280;57976;48.174;16.370;2022-12-07T01:54:58;99103.02;;;6.09;82.24
70488;BME280;57976;48.174;16.370;2022-12-07T01:57:05;99095.29;;;6.09;82.32
70488;BME280;57976;48.174;16.370;2022-12-07T01:59:11;99094.02;;;6.08;82.24
70488;BME280;57976;48.174;16.370;2022-12-07T02:01:16;99096.98;;;6.08;82.25
70488;BME280;57976;48.174;16.370;2022-12-07T02:03:24;99095.30;;;6.08;82.39
70488;BME280;57976;48.174;16.370;2022-12-07T02:05:30;99097.39;;;6.08;82.40
70488;BME280;57976;48.174;16.370;2022-12-07T02:07:36;99095.29;;;6.06;82.64
70488;BME280;57976;48.174;16.370;2022-12-07T02:09:42;99094.88;;;6.07;82.22
70488;BME280;57976;48.174;16.370;2022-12-07T02:11:48;99091.39;;;6.05;82.50
70488;BME280;57976;48.174;16.370;2022-12-07T02:13:53;99090.64;;;6.04;82.63
70488;BME280;57976;48.174;16.370;2022-12-07T02:16:11;99091.58;;;6.05;82.41
70488;BME280;57976;48.174;16.370;2022-12-07T02:18:22;99089.90;;;6.04;82.59
70488;BME280;57976;48.174;16.370;2022-12-07T02:20:34;99089.02;;;6.04;82.43
70488;BME280;57976;48.174;16.370;2022-12-07T02:23:11;99087.97;;;6.04;82.63
70488;BME280;57976;48.174;16.370;2022-12-07T02:25:25;99086.73;;;6.04;82.59
70488;BME280;57976;48.174;16.370;2022-12-07T02:27:43;99085.86;;;6.02;82.47
70488;BME280;57976;48.174;16.370;2022-12-07T02:29:54;99082.94;;;6.03;82.70
70488;BME280;57976;48.174;16.370;2022-12-07T02:32:06;99087.06;;;6.04;82.39
70488;BME280;57976;48.174;16.370;2022-12-07T02:34:19;99086.58;;;6.04;82.49
70488;BME280;57976;48.174;16.370;2022-12-07T02:36:28;99087.34;;;6.03;82.84
70488;BME280;57976;48.174;16.370;2022-12-07T02:38:38;99086.77;;;6.04;82.67
70488;BME280;57976;48.174;16.370;2022-12-07T02:40:49;99091.77;;;6.03;82.63
70488;BME280;57976;48.174;16.370;2022-12-07T02:42:57;99088.67;;;6.06;82.87
70488;BME280;57976;48.174;16.370;2022-12-07T02:45:06;99089.58;;;6.05;82.83
70488;BME280;57976;48.174;16.370;2022-12-07T02:47:14;99095.10;;;6.03;82.66
70488;BME280;57976;48.174;16.370;2022-12-07T02:49:20;99094.55;;;6.02;82.86
70488;BME280;57976;48.174;16.370;2022-12-07T02:51:29;99087.85;;;6.02;83.13
70488;BME280;57976;48.174;16.370;2022-12-07T02:53:35;99092.94;;;6.01;82.79
70488;BME280;57976;48.174;16.370;2022-12-07T02:55:42;99096.09;;;6.01;82.81
70488;BME280;57976;48.174;16.370;2022-12-07T03:00:23;99091.80;;;6.00;83.60
70488;BME280;57976;48.174;16.370;2022-12-07T03:02:35;99093.10;;;6.01;82.95
70488;BME280;57976;48.174;16.370;2022-12-07T03:04:48;99095.10;;;6.00;83.16
70488;BME280;57976;48.174;16.370;2022-12-07T03:07:00;99091.05;;;6.02;83.27
70488;BME280;57976;48.174;16.370;2022-12-07T03:09:13;99094.98;;;6.03;83.39
70488;BME280;57976;48.174;16.370;2022-12-07T03:11:23;99090.93;;;6.04;83.24
70488;BME280;57976;48.174;16.370;2022-12-07T03:13:34;99093.38;;;6.06;83.14
70488;BME280;57976;48.174;16.370;2022-12-07T03:15:45;99093.63;;;6.05;83.07
70488;BME280;57976;48.174;16.370;2022-12-07T03:17:52;99090.07;;;6.06;83.42
70488;BME280;57976;48.174;16.370;2022-12-07T03:20:01;99084.96;;;6.07;83.15
70488;BME280;57976;48.174;16.370;2022-12-07T03:22:11;99086.52;;;6.07;83.27
70488;BME280;57976;48.174;16.370;2022-12-07T03:24:19;99088.38;;;6.07;83.31
70488;BME280;57976;48.174;16.370;2022-12-07T03:26:30;99086.80;;;6.05;83.08
70488;BME280;57976;48.174;16.370;2022-12-07T03:28:39;99090.03;;;6.04;83.07
70488;BME280;57976;48.174;16.370;2022-12-07T03:30:49;99091.83;;;6.06;83.27
70488;BME280;57976;48.174;16.370;2022-12-07T03:32:57;99087.16;;;6.05;83.08
70488;BME280;57976;48.174;16.370;2022-12-07T03:35:07;99084.88;;;6.06;83.22
70488;BME280;57976;48.174;16.370;2022-12-07T03:37:18;99086.44;;;6.05;82.96
70488;BME280;57976;48.174;16.370;2022-12-07T03:39:29;99089.70;;;6.04;82.94
70488;BME280;57976;48.174;16.370;2022-12-07T03:41:36;99088.76;;;6.03;83.12
70488;BME280;57976;48.174;16.370;2022-12-07T03:43:49;99085.86;;;6.03;82.99
70488;BME280;57976;48.174;16.370;2022-12-07T03:45:59;99088.94;;;6.02;83.33
70488;BME280;57976;48.174;16.370;2022-12-07T03:48:16;99091.81;;;6.04;83.10
70488;BME280;57976;48.174;16.370;2022-12-07T03:50:30;99091.52;;;6.04;83.16
70488;BME280;57976;48.174;16.370;2022-12-07T03:52:39;99095.19;;;6.04;83.20
70488;BME280;57976;48.174;16.370;2022-12-07T03:54:50;99098.70;;;6.01;82.84
70488;BME280;57976;48.174;16.370;2022-12-07T03:56:57;99095.96;;;6.00;82.93
70488;BME280;57976;48.174;16.370;2022-12-07T03:59:02;99097.48;;;6.00;83.04
70488;BME280;57976;48.174;16.370;2022-12-07T04:01:07;99104.91;;;5.99;83.20
70488;BME280;57976;48.174;16.370;2022-12-07T04:03:12;99093.09;;;6.00;83.14
70488;BME280;57976;48.174;16.370;2022-12-07T04:05:17;99097.11;;;6.00;83.24
70488;BME280;57976;48.174;16.370;2022-12-07T04:07:22;99097.21;;;6.00;82.98
70488;BME280;57976;48.174;16.370;2022-12-07T04:09:27;99100.17;;;5.99;82.93
70488;BME280;57976;48.174;16.370;2022-12-07T04:11:32;99102.66;;;6.00;83.18
70488;BME280;57976;48.174;16.370;2022-12-07T04:13:37;99106.20;;;6.00;83.00
70488;BME280;57976;48.174;16.370;2022-12-07T04:15:42;99103.29;;;5.98;82.92
70488;BME280;57976;48.174;16.370;2022-12-07T04:17:47;99105.15;;;5.99;83.07
70488;BME280;57976;48.174;16.370;2022-12-07T04:19:51;99106.09;;;6.00;82.88
70488;BME280;57976;48.174;16.370;2022-12-07T04:21:57;99108.92;;;6.00;83.02
70488;BME280;57976;48.174;16.370;2022-12-07T04:24:02;99106.91;;;5.99;83.12
70488;BME280;57976;48.174;16.370;2022-12-07T04:26:07;99109.55;;;5.99;83.17
70488;BME280;57976;48.174;16.370;2022-12-07T04:28:11;99104.61;;;5.96;82.99
70488;BME280;57976;48.174;16.370;2022-12-07T04:30:18;99107.54;;;5.95;83.04
70488;BME280;57976;48.174;16.370;2022-12-07T04:32:23;99106.30;;;5.95;83.09
70488;BME280;57976;48.174;16.370;2022-12-07T04:34:28;99107.52;;;5.97;83.05
70488;BME280;57976;48.174;16.370;2022-12-07T04:36:33;99106.09;;;5.97;83.29
70488;BME280;57976;48.174;16.370;2022-12-07T04:38:38;99107.98;;;5.95;82.96
70488;BME280;57976;48.174;16.370;2022-12-07T04:40:43;99106.87;;;5.94;82.98
70488;BME280;57976;48.174;16.370;2022-12-07T04:42:48;99110.19;;;5.95;83.06
70488;BME280;57976;48.174;16.370;2022-12-07T04:44:53;99106.29;;;5.95;83.15
70488;BME280;57976;48.174;16.370;2022-12-07T04:46:59;99107.83;;;5.95;82.88
70488;BME280;57976;48.174;16.370;2022-12-07T04:49:03;99105.75;;;5.95;82.98
70488;BME280;57976;48.174;16.370;2022-12-07T04:51:08;99104.21;;;5.96;82.97
70488;BME280;57976;48.174;16.370;2022-12-07T04:53:13;99100.67;;;5.98;82.72
70488;BME280;57976;48.174;16.370;2022-12-07T04:55:18;99099.34;;;5.97;82.36
70488;BME280;57976;48.174;16.370;2022-12-07T04:57:22;99102.77;;;5.98;82.46
70488;BME280;57976;48.174;16.370;2022-12-07T04:59:27;99102.60;;;5.99;82.61
70488;BME280;57976;48.174;16.370;2022-12-07T05:01:32;99102.02;;;6.02;82.27
70488;BME280;57976;48.174;16.370;2022-12-07T05:03:38;99105.09;;;6.02;82.30
70488;BME280;57976;48.174;16.370;2022-12-07T05:05:43;99103.64;;;6.03;82.37
70488;BME280;57976;48.174;16.370;2022-12-07T05:07:47;99102.01;;;6.05;82.18
70488;BME280;57976;48.174;16.370;2022-12-07T05:09:52;99101.18;;;6.04;82.34
70488;BME280;57976;48.174;16.370;2022-12-07T05:11:58;99099.04;;;6.07;82.18
70488;BME280;57976;48.174;16.370;2022-12-07T05:14:04;99102.31;;;6.08;82.49
70488;BME280;57976;48.174;16.370;2022-12-07T05:16:09;99101.02;;;6.11;82.04
70488;BME280;57976;48.174;16.370;2022-12-07T05:18:14;99102.43;;;6.13;81.86
70488;BME280;57976;48.174;16.370;2022-12-07T05:20:19;99100.97;;;6.13;81.84
70488;BME280;57976;48.174;16.370;2022-12-07T05:22:24;99099.39;;;6.13;81.39
70488;BME280;57976;48.174;16.370;2022-12-07T05:24:28;99102.71;;;6.13;81.80
70488;BME280;57976;48.174;16.370;2022-12-07T05:26:33;99101.02;;;6.14;81.58
70488;BME280;57976;48.174;16.370;2022-12-07T05:28:38;99100.42;;;6.15;81.63
70488;BME280;57976;48.174;16.370;2022-12-07T05:30:43;99100.45;;;6.16;81.35
70488;BME280;57976;48.174;16.370;2022-12-07T05:32:48;99100.27;;;6.15;81.13
70488;BME280;57976;48.174;16.370;2022-12-07T05:34:53;99096.96;;;6.14;81.22
70488;BME280;57976;48.174;16.370;2022-12-07T05:36:57;99094.80;;;6.16;81.51
70488;BME280;57976;48.174;16.370;2022-12-07T05:39:02;99097.40;;;6.17;81.07
70488;BME280;57976;48.174;16.370;2022-12-07T05:41:08;99098.70;;;6.16;81.08
70488;BME280;57976;48.174;16.370;2022-12-07T05:43:13;99095.51;;;6.16;81.20
70488;BME280;57976;48.174;16.370;2022-12-07T05:45:18;99094.77;;;6.17;81.01
70488;BME280;57976;48.174;16.370;2022-12-07T05:47:23;99096.36;;;6.15;80.76
70488;BME280;57976;48.174;16.370;2022-12-07T05:49:27;99095.05;;;6.14;80.78
70488;BME280;57976;48.174;16.370;2022-12-07T05:51:32;99096.13;;;6.16;80.79
70488;BME280;57976;48.174;16.370;2022-12-07T05:53:37;99096.85;;;6.15;80.76
70488;BME280;57976;48.174;16.370;2022-12-07T05:55:42;99097.21;;;6.15;80.84
70488;BME280;57976;48.174;16.370;2022-12-07T05:57:46;99098.40;;;6.16;80.90
70488;BME280;57976;48.174;16.370;2022-12-07T05:59:51;99101.31;;;6.16;80.55
70488;BME280;57976;48.174;16.370;2022-12-07T06:01:58;99100.50;;;6.14;80.55
70488;BME280;57976;48.174;16.370;2022-12-07T06:04:03;99104.22;;;6.15;80.41
70488;BME280;57976;48.174;16.370;2022-12-07T06:06:08;99104.77;;;6.17;80.83
70488;BME280;57976;48.174;16.370;2022-12-07T06:08:13;99105.99;;;6.20;80.33
70488;BME280;57976;48.174;16.370;2022-12-07T06:10:18;99105.08;;;6.20;80.07
70488;BME280;57976;48.174;16.370;2022-12-07T06:12:22;99109.02;;;6.21;80.32
70488;BME280;57976;48.174;16.370;2022-12-07T06:14:27;99108.98;;;6.23;79.84
70488;BME280;57976;48.174;16.370;2022-12-07T06:16:32;99108.36;;;6.22;79.85
70488;BME280;57976;48.174;16.370;2022-12-07T06:18:37;99108.52;;;6.22;79.88
70488;BME280;57976;48.174;16.370;2022-12-07T06:20:42;99105.91;;;6.24;79.84
70488;BME280;57976;48.174;16.370;2022-12-07T06:22:47;99104.89;;;6.23;79.82
70488;BME280;57976;48.174;16.370;2022-12-07T06:24:52;99107.60;;;6.26;79.79
70488;BME280;57976;48.174;16.370;2022-12-07T06:26:56;99107.14;;;6.25;79.43
70488;BME280;57976;48.174;16.370;2022-12-07T06:29:01;99101.80;;;6.24;79.38
70488;BME280;57976;48.174;16.370;2022-12-07T06:31:06;99106.00;;;6.24;79.59
70488;BME280;57976;48.174;16.370;2022-12-07T06:33:17;99105.27;;;6.25;79.59
70488;BME280;57976;48.174;16.370;2022-12-07T06:35:22;99104.02;;;6.25;79.07
70488;BME280;57976;48.174;16.370;2022-12-07T06:37:27;99108.23;;;6.24;78.75
70488;BME280;57976;48.174;16.370;2022-12-07T06:39:32;99109.80;;;6.25;79.23
70488;BME280;57976;48.174;16.370;2022-12-07T06:41:37;99112.36;;;6.27;79.24
70488;BME280;57976;48.174;16.370;2022-12-07T06:43:42;99115.05;;;6.28;79.21
70488;BME280;57976;48.174;16.370;2022-12-07T06:45:47;99116.84;;;6.31;79.01
70488;BME280;57976;48.174;16.370;2022-12-07T06:47:51;99116.54;;;6.34;79.17
70488;BME280;57976;48.174;16.370;2022-12-07T06:49:56;99116.58;;;6.36;79.14
70488;BME280;57976;48.174;16.370;2022-12-07T06:52:01;99114.63;;;6.38;78.92
70488;BME280;57976;48.174;16.370;2022-12-07T06:54:06;99116.62;;;6.39;78.97
70488;BME280;57976;48.174;16.370;2022-12-07T06:56:11;99115.95;;;6.40;78.64
70488;BME280;57976;48.174;16.370;2022-12-07T06:58:16;99117.61;;;6.39;78.76
70488;BME280;57976;48.174;16.370;2022-12-07T07:00:22;99116.54;;;6.39;78.65
70488;BME280;57976;48.174;16.370;2022-12-07T07:02:27;99117.84;;;6.39;78.42
70488;BME280;57976;48.174;16.370;2022-12-07T07:04:32;99115.80;;;6.38;78.39
70488;BME280;57976;48.174;16.370;2022-12-07T07:06:36;99108.17;;;6.40;78.54
70488;BME280;57976;48.174;16.370;2022-12-07T07:08:41;99109.93;;;6.43;78.00
70488;BME280;57976;48.174;16.370;2022-12-07T07:10:49;99108.96;;;6.44;77.97
70488;BME280;57976;48.174;16.370;2022-12-07T07:12:54;99109.91;;;6.42;77.70
70488;BME280;57976;48.174;16.370;2022-12-07T07:15:01;99108.25;;;6.43;77.67
70488;BME280;57976;48.174;16.370;2022-12-07T07:17:06;99112.91;;;6.42;77.45
70488;BME280;57976;48.174;16.370;2022-12-07T07:19:10;99109.59;;;6.43;77.33
70488;BME280;57976;48.174;16.370;2022-12-07T07:21:15;99114.48;;;6.43;77.05
70488;BME280;57976;48.174;16.370;2022-12-07T07:23:20;99110.52;;;6.43;77.25
70488;BME280;57976;48.174;16.370;2022-12-07T07:25:25;99115.98;;;6.43;77.26
70488;BME280;57976;48.174;16.370;2022-12-07T07:27:30;99124.23;;;6.42;77.12
70488;BME280;57976;48.174;16.370;2022-12-07T07:29:35;99126.19;;;6.41;76.96
70488;BME280;57976;48.174;16.370;2022-12-07T07:31:39;99124.05;;;6.43;77.10
70488;BME280;57976;48.174;16.370;2022-12-07T07:33:44;99128.61;;;6.46;77.11
70488;BME280;57976;48.174;16.370;2022-12-07T07:35:49;99131.51;;;6.52;77.03
70488;BME280;57976;48.174;16.370;2022-12-07T07:37:53;99132.52;;;6.53;76.97
70488;BME280;57976;48.174;16.370;2022-12-07T07:39:58;99130.79;;;6.54;76.68
70488;BME280;57976;48.174;16.370;2022-12-07T07:42:04;99131.67;;;6.56;76.79
70488;BME280;57976;48.174;16.370;2022-12-07T07:44:10;99131.69;;;6.57;76.88
70488;BME280;57976;48.174;16.370;2022-12-07T07:46:15;99135.58;;;6.59;76.69
70488;BME280;57976;48.174;16.370;2022-12-07T07:48:20;99134.57;;;6.60;76.33
70488;BME280;57976;48.174;16.370;2022-12-07T07:50:24;99137.95;;;6.59;76.27
70488;BME280;57976;48.174;16.370;2022-12-07T07:52:29;99139.96;;;6.60;76.62
70488;BME280;57976;48.174;16.370;2022-12-07T07:54:35;99138.00;;;6.62;76.00
70488;BME280;57976;48.174;16.370;2022-12-07T07:56:40;99134.00;;;6.62;76.19
70488;BME280;57976;48.174;16.370;2022-12-07T07:58:45;99131.30;;;6.64;75.93
70488;BME280;57976;48.174;16.370;2022-12-07T08:00:50;99135.48;;;6.65;75.87
70488;BME280;57976;48.174;16.370;2022-12-07T08:02:54;99136.95;;;6.62;75.87
70488;BME280;57976;48.174;16.370;2022-12-07T08:04:59;99137.08;;;6.61;75.90
70488;BME280;57976;48.174;16.370;2022-12-07T08:07:04;99143.02;;;6.60;75.59
70488;BME280;57976;48.174;16.370;2022-12-07T08:09:09;99147.06;;;6.61;75.91
70488;BME280;57976;48.174;16.370;2022-12-07T08:11:14;99148.33;;;6.61;75.52
70488;BME280;57976;48.174;16.370;2022-12-07T08:13:19;99147.05;;;6.60;75.77
70488;BME280;57976;48.174;16.370;2022-12-07T08:15:23;99156.36;;;6.62;75.65
70488;BME280;57976;48.174;16.370;2022-12-07T08:17:28;99151.36;;;6.62;75.88
70488;BME280;57976;48.174;16.370;2022-12-07T08:19:34;99152.59;;;6.64;76.09
70488;BME280;57976;48.174;16.370;2022-12-07T08:21:38;99149.38;;;6.66;75.62
70488;BME280;57976;48.174;16.370;2022-12-07T08:23:44;99140.79;;;6.64;75.92
70488;BME280;57976;48.174;16.370;2022-12-07T08:25:49;99148.33;;;6.64;75.84
70488;BME280;57976;48.174;16.370;2022-12-07T08:27:54;99150.61;;;6.64;75.60
70488;BME280;57976;48.174;16.370;2022-12-07T08:29:59;99152.27;;;6.64;75.60
70488;BME280;57976;48.174;16.370;2022-12-07T08:32:05;99155.30;;;6.62;75.38
70488;BME280;57976;48.174;16.370;2022-12-07T08:34:13;99154.77;;;6.59;75.44
70488;BME280;57976;48.174;16.370;2022-12-07T08:36:18;99159.64;;;6.61;75.33
70488;BME280;57976;48.174;16.370;2022-12-07T08:38:23;99161.82;;;6.59;74.43
70488;BME280;57976;48.174;16.370;2022-12-07T08:40:35;99166.05;;;6.55;74.53
70488;BME280;57976;48.174;16.370;2022-12-07T08:42:39;99163.82;;;6.53;74.55
70488;BME280;57976;48.174;16.370;2022-12-07T08:44:44;99171.36;;;6.50;74.04
70488;BME280;57976;48.174;16.370;2022-12-07T08:46:52;99171.46;;;6.48;73.45
70488;BME280;57976;48.174;16.370;2022-12-07T08:49:01;99174.77;;;6.48;73.37
70488;BME280;57976;48.174;16.370;2022-12-07T08:51:07;99174.27;;;6.49;72.77
70488;BME280;57976;48.174;16.370;2022-12-07T08:53:11;99180.77;;;6.51;72.66
70488;BME280;57976;48.174;16.370;2022-12-07T08:55:16;99175.80;;;6.51;72.11
70488;BME280;57976;48.174;16.370;2022-12-07T08:57:21;99176.39;;;6.49;72.60
70488;BME280;57976;48.174;16.370;2022-12-07T08:59:26;99179.40;;;6.51;72.89
70488;BME280;57976;48.174;16.370;2022-12-07T09:01:32;99177.88;;;6.53;72.75
70488;BME280;57976;48.174;16.370;2022-12-07T09:03:37;99178.09;;;6.54;72.14
70488;BME280;57976;48.174;16.370;2022-12-07T09:05:42;99175.64;;;6.54;71.46
70488;BME280;57976;48.174;16.370;2022-12-07T09:07:50;99179.79;;;6.53;71.11
70488;BME280;57976;48.174;16.370;2022-12-07T09:09:55;99181.72;;;6.52;70.77
70488;BME280;57976;48.174;16.370;2022-12-07T09:12:00;99178.67;;;6.53;70.50
70488;BME280;57976;48.174;16.370;2022-12-07T09:14:05;99174.73;;;6.53;70.68
70488;BME280;57976;48.174;16.370;2022-12-07T09:16:10;99177.00;;;6.55;70.00
70488;BME280;57976;48.174;16.370;2022-12-07T09:18:14;99181.56;;;6.58;70.11
70488;BME280;57976;48.174;16.370;2022-12-07T09:20:19;99176.19;;;6.55;70.13
70488;BME280;57976;48.174;16.370;2022-12-07T09:22:31;99171.83;;;6.52;68.96
70488;BME280;57976;48.174;16.370;2022-12-07T09:24:36;99165.38;;;6.46;69.50
70488;BME280;57976;48.174;16.370;2022-12-07T09:26:41;99167.04;;;6.43;69.63
70488;BME280;57976;48.174;16.370;2022-12-07T09:28:46;99165.79;;;6.44;69.27
70488;BME280;57976;48.174;16.370;2022-12-07T09:30:50;99171.08;;;6.41;68.80
70488;BME280;57976;48.174;16.370;2022-12-07T09:33:15;99167.63;;;6.37;68.39
70488;BME280;57976;48.174;16.370;2022-12-07T09:35:20;99167.46;;;6.33;69.01
70488;BME280;57976;48.174;16.370;2022-12-07T09:37:25;99166.55;;;6.31;69.35
70488;BME280;57976;48.174;16.370;2022-12-07T09:39:30;99164.55;;;6.29;69.47
70488;BME280;57976;48.174;16.370;2022-12-07T09:41:38;99163.73;;;6.28;69.84
70488;BME280;57976;48.174;16.370;2022-12-07T09:43:44;99163.79;;;6.29;69.61
70488;BME280;57976;48.174;16.370;2022-12-07T09:45:50;99163.75;;;6.30;69.81
70488;BME280;57976;48.174;16.370;2022-12-07T09:47:55;99164.52;;;6.29;69.86
70488;BME280;57976;48.174;16.370;2022-12-07T09:50:06;99166.29;;;6.30;69.93
70488;BME280;57976;48.174;16.370;2022-12-07T09:52:20;99164.80;;;6.31;69.29
70488;BME280;57976;48.174;16.370;2022-12-07T09:54:30;99159.10;;;6.29;68.85
70488;BME280;57976;48.174;16.370;2022-12-07T09:56:35;99158.66;;;6.29;69.96
70488;BME280;57976;48.174;16.370;2022-12-07T09:58:40;99160.20;;;6.31;69.51
70488;BME280;57976;48.174;16.370;2022-12-07T10:00:45;99155.64;;;6.31;69.97
70488;BME280;57976;48.174;16.370;2022-12-07T10:02:52;99154.15;;;6.35;69.80
70488;BME280;57976;48.174;16.370;2022-12-07T10:05:01;99155.77;;;6.34;68.72
70488;BME280;57976;48.174;16.370;2022-12-07T10:07:08;99148.38;;;6.33;67.88
70488;BME280;57976;48.174;16.370;2022-12-07T10:09:15;99141.64;;;6.31;67.80
70488;BME280;57976;48.174;16.370;2022-12-07T10:11:20;99151.32;;;6.33;67.80
70488;BME280;57976;48.174;16.370;2022-12-07T10:13:36;99138.01;;;6.35;67.73
70488;BME280;57976;48.174;16.370;2022-12-07T10:15:47;99155.82;;;6.37;66.57
70488;BME280;57976;48.174;16.370;2022-12-07T10:17:53;99141.95;;;6.38;66.61
70488;BME280;57976;48.174;16.370;2022-12-07T10:20:20;99138.21;;;6.40;65.74
70488;BME280;57976;48.174;16.370;2022-12-07T10:22:25;99131.21;;;6.45;66.93
70488;BME280;57976;48.174;16.370;2022-12-07T10:24:35;99133.67;;;6.51;67.25
70488;BME280;57976;48.174;16.370;2022-12-07T10:26:48;99132.59;;;6.56;67.45
70488;BME280;57976;48.174;16.370;2022-12-07T10:28:55;99128.81;;;6.62;66.05
70488;BME280;57976;48.174;16.370;2022-12-07T10:31:02;99136.05;;;6.68;64.31
70488;BME280;57976;48.174;16.370;2022-12-07T10:33:28;99136.32;;;6.70;63.67
70488;BME280;57976;48.174;16.370;2022-12-07T10:35:33;99129.54;;;6.71;63.89
70488;BME280;57976;48.174;16.370;2022-12-07T10:37:47;99123.20;;;6.76;64.95
70488;BME280;57976;48.174;16.370;2022-12-07T10:39:53;99119.77;;;6.81;64.17
70488;BME280;57976;48.174;16.370;2022-12-07T10:42:00;99120.82;;;6.85;64.09
70488;BME280;57976;48.174;16.370;2022-12-07T10:44:07;99114.52;;;6.86;63.01
70488;BME280;57976;48.174;16.370;2022-12-07T10:49:18;99118.14;;;6.83;62.96
70488;BME280;57976;48.174;16.370;2022-12-07T10:51:35;99120.16;;;6.79;62.72
70488;BME280;57976;48.174;16.370;2022-12-07T10:53:50;99118.59;;;6.75;62.82
70488;BME280;57976;48.174;16.370;2022-12-07T10:56:08;99122.51;;;6.69;62.80
70488;BME280;57976;48.174;16.370;2022-12-07T10:58:34;99124.73;;;6.66;62.98
70488;BME280;57976;48.174;16.370;2022-12-07T11:00:45;99120.05;;;6.63;63.28
70488;BME280;57976;48.174;16.370;2022-12-07T11:03:08;99118.86;;;6.60;63.52
70488;BME280;57976;48.174;16.370;2022-12-07T11:05:26;99116.17;;;6.57;64.27
70488;BME280;57976;48.174;16.370;2022-12-07T11:07:39;99121.82;;;6.57;63.84
70488;BME280;57976;48.174;16.370;2022-12-07T11:10:01;99122.48;;;6.56;64.52
70488;BME280;57976;48.174;16.370;2022-12-07T11:12:20;99121.20;;;6.56;64.06
70488;BME280;57976;48.174;16.370;2022-12-07T11:14:31;99122.66;;;6.58;64.81
70488;BME280;57976;48.174;16.370;2022-12-07T11:16:56;99123.92;;;6.60;64.57
70488;BME280;57976;48.174;16.370;2022-12-07T11:19:20;99125.92;;;6.63;64.24